createdAt,value
2019-06-26T00:01:27.685Z,21.57
2019-06-26T00:03:56.167Z,21.67
2019-06-26T00:06:24.611Z,21.87
2019-06-26T00:08:53.029Z,21.94
2019-06-26T00:11:21.550Z,22.15
2019-06-26T00:13:49.966Z,22.06
2019-06-26T00:16:19.327Z,21.83
2019-06-26T00:18:47.830Z,21.83
2019-06-26T00:21:16.350Z,21.92
2019-06-26T00:23:44.789Z,21.95
2019-06-26T00:26:13.254Z,21.86
2019-06-26T00:28:41.733Z,21.32
2019-06-26T00:31:10.278Z,20.95
2019-06-26T00:33:38.691Z,20.83
2019-06-26T00:36:07.229Z,21.13
2019-06-26T00:38:35.757Z,21.32
2019-06-26T00:41:04.249Z,20.99
2019-06-26T00:43:42.066Z,20.87
2019-06-26T00:46:02.906Z,21.04
2019-06-26T00:48:31.326Z,21.09
2019-06-26T00:50:59.780Z,21.04
2019-06-26T00:53:28.203Z,20.78
2019-06-26T00:55:56.763Z,20.76
2019-06-26T00:58:25.246Z,20.90
2019-06-26T01:00:54.157Z,20.87
2019-06-26T01:03:22.575Z,20.73
2019-06-26T01:05:51.078Z,20.82
2019-06-26T01:08:19.672Z,20.72
2019-06-26T01:10:48.108Z,20.80
2019-06-26T01:13:16.624Z,20.82
2019-06-26T01:15:45.047Z,20.71
2019-06-26T01:18:13.561Z,20.56
2019-06-26T01:20:42.327Z,20.88
2019-06-26T01:23:10.808Z,20.98
2019-06-26T01:25:39.268Z,20.94
2019-06-26T01:28:07.685Z,20.80
2019-06-26T01:30:36.119Z,20.94
2019-06-26T01:33:04.636Z,20.82
2019-06-26T01:35:33.175Z,20.83
2019-06-26T01:38:01.661Z,20.87
2019-06-26T01:40:30.102Z,20.88
2019-06-26T01:42:58.560Z,20.95
2019-06-26T01:45:26.994Z,20.83
2019-06-26T01:47:55.451Z,20.65
2019-06-26T01:50:23.872Z,20.69
2019-06-26T01:52:52.374Z,20.72
2019-06-26T01:55:20.833Z,20.59
2019-06-26T01:57:49.245Z,20.50
2019-06-26T02:00:18.414Z,20.53
2019-06-26T02:02:46.963Z,20.53
2019-06-26T02:05:15.568Z,20.38
2019-06-26T02:07:44.134Z,20.18
2019-06-26T02:10:14.132Z,20.26
2019-06-26T02:12:42.667Z,20.18
2019-06-26T02:15:12.325Z,20.26
2019-06-26T02:17:40.799Z,20.13
2019-06-26T02:20:09.553Z,20.04
2019-06-26T02:22:38.151Z,19.94
2019-06-26T02:25:07.023Z,19.98
2019-06-26T02:27:35.712Z,20.00
2019-06-26T02:30:08.113Z,19.87
2019-06-26T02:32:36.593Z,19.89
2019-06-26T02:35:09.592Z,19.88
2019-06-26T02:37:37.013Z,19.89
2019-06-26T02:40:07.391Z,19.88
2019-06-26T02:42:36.034Z,19.94
2019-06-26T02:45:05.896Z,19.92
2019-06-26T02:47:34.720Z,19.96
2019-06-26T02:50:03.643Z,19.99
2019-06-26T02:52:32.096Z,19.91
2019-06-26T02:55:00.509Z,19.93
2019-06-26T02:57:28.947Z,19.97
2019-06-26T02:59:57.377Z,19.98
2019-06-26T03:02:25.937Z,20.03
2019-06-26T03:04:54.391Z,19.98
2019-06-26T03:07:22.924Z,20.01
2019-06-26T03:09:51.412Z,20.04
2019-06-26T03:12:19.865Z,20.10
2019-06-26T03:14:48.287Z,20.08
2019-06-26T03:17:16.816Z,20.07
2019-06-26T03:19:45.265Z,20.12
2019-06-26T03:22:13.746Z,20.17
2019-06-26T03:24:42.171Z,20.17
2019-06-26T03:27:10.631Z,20.15
2019-06-26T03:29:39.049Z,20.17
2019-06-26T03:32:07.574Z,20.23
2019-06-26T03:34:36.001Z,20.31
2019-06-26T03:37:04.721Z,20.21
2019-06-26T03:39:33.216Z,20.20
2019-06-26T03:42:01.697Z,20.23
2019-06-26T03:44:30.155Z,20.27
2019-06-26T03:46:58.565Z,20.30
2019-06-26T03:49:27.036Z,20.36
2019-06-26T03:51:55.576Z,20.37
2019-06-26T03:54:24.016Z,20.48
2019-06-26T03:56:52.497Z,20.53
2019-06-26T03:59:20.962Z,20.39
2019-06-26T04:01:49.435Z,20.36
2019-06-26T04:04:17.887Z,20.29
2019-06-26T04:06:46.313Z,20.30
2019-06-26T04:09:14.822Z,20.24
2019-06-26T04:11:43.611Z,20.30
2019-06-26T04:14:12.139Z,20.40
2019-06-26T04:16:42.285Z,20.62
2019-06-26T04:19:10.747Z,20.73
2019-06-26T04:21:39.286Z,20.73
2019-06-26T04:24:07.888Z,20.84
2019-06-26T04:26:36.376Z,21.03
2019-06-26T04:29:04.898Z,20.95
2019-06-26T04:31:33.432Z,21.00
2019-06-26T04:34:01.936Z,21.14
2019-06-26T04:36:30.457Z,21.42
2019-06-26T04:38:58.973Z,21.43
2019-06-26T04:41:27.408Z,21.59
2019-06-26T04:43:55.842Z,21.83
2019-06-26T04:46:24.311Z,21.95
2019-06-26T04:48:52.990Z,22.05
2019-06-26T04:51:21.550Z,22.08
2019-06-26T04:53:50.000Z,22.16
2019-06-26T04:56:18.460Z,22.21
2019-06-26T04:58:47.085Z,22.51
2019-06-26T05:01:15.778Z,22.58
2019-06-26T05:03:44.290Z,22.82
2019-06-26T05:06:12.755Z,23.05
2019-06-26T05:08:41.206Z,23.12
2019-06-26T05:11:12.689Z,23.22
2019-06-26T05:13:39.958Z,23.50
2019-06-26T05:16:15.152Z,23.50
2019-06-26T05:18:38.525Z,23.53
2019-06-26T05:21:06.989Z,23.64
2019-06-26T05:23:35.445Z,24.13
2019-06-26T05:26:03.893Z,24.12
2019-06-26T05:28:32.341Z,24.20
2019-06-26T05:31:00.903Z,24.43
2019-06-26T05:33:29.397Z,24.69
2019-06-26T05:35:57.872Z,24.71
2019-06-26T05:38:26.395Z,24.86
2019-06-26T05:40:54.820Z,25.06
2019-06-26T05:43:23.418Z,25.18
2019-06-26T05:45:51.882Z,25.28
2019-06-26T05:48:20.350Z,25.54
2019-06-26T05:50:48.883Z,25.68
2019-06-26T05:53:17.454Z,25.66
2019-06-26T05:55:45.878Z,25.69
2019-06-26T05:58:17.246Z,25.91
2019-06-26T06:00:47.334Z,26.08
2019-06-26T06:03:15.865Z,26.32
2019-06-26T06:05:44.277Z,26.60
2019-06-26T06:08:12.739Z,26.91
2019-06-26T06:10:41.349Z,27.01
2019-06-26T06:13:09.827Z,27.26
2019-06-26T06:15:38.311Z,27.44
2019-06-26T06:18:06.915Z,27.44
2019-06-26T06:20:39.779Z,27.23
2019-06-26T06:23:08.381Z,27.82
2019-06-26T06:25:36.866Z,27.58
2019-06-26T06:28:05.555Z,27.69
2019-06-26T06:30:33.961Z,28.07
2019-06-26T06:33:02.618Z,28.31
2019-06-26T06:35:30.992Z,28.59
2019-06-26T06:37:59.581Z,28.69
2019-06-26T06:40:27.995Z,28.96
2019-06-26T06:42:56.476Z,29.18
2019-06-26T06:45:25.832Z,29.66
2019-06-26T06:47:54.298Z,29.72
2019-06-26T06:50:22.780Z,30.06
2019-06-26T06:52:51.203Z,30.45
2019-06-26T06:55:19.907Z,30.68
2019-06-26T06:57:48.401Z,30.84
2019-06-26T07:00:17.680Z,31.06
2019-06-26T07:02:46.176Z,31.24
2019-06-26T07:05:14.773Z,31.51
2019-06-26T07:07:43.284Z,31.76
2019-06-26T07:10:12.058Z,32.20
2019-06-26T07:12:40.647Z,32.25
2019-06-26T07:15:10.029Z,32.30
2019-06-26T07:17:38.484Z,32.68
2019-06-26T07:20:07.139Z,32.96
2019-06-26T07:22:35.590Z,33.07
2019-06-26T07:25:04.979Z,33.46
2019-06-26T07:27:33.529Z,33.80
2019-06-26T07:30:01.975Z,33.78
2019-06-26T07:32:30.572Z,33.93
2019-06-26T07:34:59.160Z,34.41
2019-06-26T07:37:27.574Z,34.76
2019-06-26T07:40:01.335Z,35.35
2019-06-26T07:42:26.183Z,35.22
2019-06-26T07:44:54.707Z,35.63
2019-06-26T07:47:38.450Z,35.85
2019-06-26T07:49:53.324Z,35.86
2019-06-26T07:52:21.767Z,36.05
2019-06-26T07:54:50.232Z,36.27
2019-06-26T07:57:18.898Z,36.79
2019-06-26T07:59:47.369Z,36.65
2019-06-26T08:02:15.771Z,37.09
2019-06-26T08:04:44.284Z,37.04
2019-06-26T08:07:12.892Z,37.60
2019-06-26T08:09:41.420Z,38.01
2019-06-26T08:12:09.854Z,37.97
2019-06-26T08:14:38.315Z,37.72
2019-06-26T08:17:06.960Z,37.57
2019-06-26T08:19:35.387Z,38.11
2019-06-26T08:22:03.855Z,38.46
2019-06-26T08:24:32.341Z,38.86
2019-06-26T08:27:01.248Z,38.67
2019-06-26T08:29:29.703Z,38.95
2019-06-26T08:31:58.142Z,39.36
2019-06-26T08:34:26.746Z,39.61
2019-06-26T08:36:55.312Z,40.00
2019-06-26T08:39:23.775Z,39.81
2019-06-26T08:41:52.355Z,39.18
2019-06-26T08:44:20.897Z,40.04
2019-06-26T08:46:49.301Z,40.01
2019-06-26T08:49:25.598Z,40.59
2019-06-26T08:51:47.910Z,40.72
2019-06-26T08:54:16.340Z,40.30
2019-06-26T08:56:44.801Z,40.64
2019-06-26T08:59:13.324Z,40.40
2019-06-26T09:01:41.780Z,40.97
2019-06-26T09:04:10.265Z,41.28
2019-06-26T09:06:38.775Z,41.21
2019-06-26T09:09:07.771Z,42.18
2019-06-26T09:11:36.525Z,41.99
2019-06-26T09:14:05.296Z,41.19
2019-06-26T09:16:33.720Z,41.19
2019-06-26T09:19:02.207Z,40.84
2019-06-26T09:21:31.398Z,41.08
2019-06-26T09:23:59.966Z,41.90
2019-06-26T09:26:28.483Z,41.35
2019-06-26T09:28:57.075Z,41.83
2019-06-26T09:31:25.544Z,42.03
2019-06-26T09:33:53.995Z,42.26
2019-06-26T09:36:22.489Z,42.40
2019-06-26T09:38:57.682Z,41.08
2019-06-26T09:41:23.922Z,40.16
2019-06-26T09:43:52.350Z,42.11
2019-06-26T09:46:20.886Z,42.64
2019-06-26T09:48:53.086Z,42.60
2019-06-26T09:51:19.639Z,42.01
2019-06-26T09:53:48.140Z,42.38
2019-06-26T09:56:16.748Z,42.47
2019-06-26T09:58:45.169Z,42.72
2019-06-26T10:01:13.722Z,42.11
2019-06-26T10:03:45.123Z,42.23
2019-06-26T10:06:12.332Z,41.23
2019-06-26T10:08:40.930Z,42.00
2019-06-26T10:11:09.367Z,42.61
2019-06-26T10:13:37.814Z,41.80
2019-06-26T10:16:06.328Z,41.24
2019-06-26T10:18:34.912Z,41.71
2019-06-26T10:21:03.453Z,41.96
2019-06-26T10:23:32.007Z,41.61
2019-06-26T10:26:00.562Z,42.29
2019-06-26T10:28:29.162Z,42.49
2019-06-26T10:30:57.581Z,41.73
2019-06-26T10:33:26.037Z,40.16
2019-06-26T10:35:54.528Z,41.80
2019-06-26T10:38:23.053Z,41.80
2019-06-26T10:40:51.579Z,42.36
2019-06-26T10:43:20.025Z,42.39
2019-06-26T10:45:48.642Z,42.41
2019-06-26T10:48:17.245Z,42.55
2019-06-26T10:50:50.068Z,42.28
2019-06-26T10:53:15.813Z,41.70
2019-06-26T10:55:44.303Z,41.64
2019-06-26T10:58:12.734Z,42.07
2019-06-26T11:00:41.311Z,42.08
2019-06-26T11:03:09.738Z,41.97
2019-06-26T11:05:38.167Z,41.79
2019-06-26T11:08:06.701Z,41.46
2019-06-26T11:10:35.120Z,40.79
2019-06-26T11:13:03.573Z,41.41
2019-06-26T11:15:32.143Z,41.22
2019-06-26T11:18:00.676Z,41.27
2019-06-26T11:20:29.260Z,40.68
2019-06-26T11:22:57.676Z,40.28
2019-06-26T11:25:26.211Z,40.23
2019-06-26T11:27:54.745Z,39.93
2019-06-26T11:30:23.354Z,39.98
2019-06-26T11:32:51.908Z,39.90
2019-06-26T11:35:20.528Z,39.20
2019-06-26T11:37:49.066Z,38.18
2019-06-26T11:40:17.955Z,38.82
2019-06-26T11:42:46.395Z,38.38
2019-06-26T11:45:15.105Z,38.66
2019-06-26T11:47:45.925Z,37.50
2019-06-26T11:50:14.686Z,37.58
2019-06-26T11:52:43.250Z,38.12
2019-06-26T11:55:13.497Z,37.80
2019-06-26T11:57:41.957Z,37.65
2019-06-26T12:00:13.432Z,37.55
2019-06-26T12:02:42.009Z,36.55
2019-06-26T12:05:10.973Z,36.91
2019-06-26T12:07:39.521Z,36.03
2019-06-26T12:10:09.109Z,36.57
2019-06-26T12:12:37.707Z,36.46
2019-06-26T12:15:06.834Z,36.21
2019-06-26T12:17:35.255Z,36.77
2019-06-26T12:20:17.882Z,36.80
2019-06-26T12:22:34.996Z,36.23
2019-06-26T12:25:03.653Z,36.38
2019-06-26T12:27:32.156Z,36.37
2019-06-26T12:30:00.689Z,36.24
2019-06-26T12:32:29.212Z,36.30
2019-06-26T12:34:57.716Z,36.34
2019-06-26T12:37:36.844Z,36.02
2019-06-26T12:39:56.364Z,35.90
2019-06-26T12:42:24.980Z,35.86
2019-06-26T12:44:53.488Z,35.75
2019-06-26T12:47:21.955Z,35.50
2019-06-26T12:49:50.526Z,35.53
2019-06-26T12:52:18.956Z,35.36
2019-06-26T12:54:47.413Z,35.12
2019-06-26T12:57:15.839Z,34.76
2019-06-26T12:59:56.771Z,34.79
2019-06-26T13:02:14.584Z,35.39
2019-06-26T13:04:44.923Z,35.03
2019-06-26T13:07:13.325Z,34.80
2019-06-26T13:09:41.776Z,34.90
2019-06-26T13:12:10.350Z,34.93
2019-06-26T13:14:38.850Z,34.40
2019-06-26T13:17:07.343Z,34.45
2019-06-26T13:19:35.834Z,34.58
2019-06-26T13:22:04.425Z,34.74
2019-06-26T13:24:32.870Z,34.49
2019-06-26T13:27:01.302Z,34.56
2019-06-26T13:29:29.809Z,34.31
2019-06-26T13:31:58.251Z,34.60
2019-06-26T13:34:26.730Z,34.55
2019-06-26T13:36:55.184Z,34.41
2019-06-26T13:39:23.615Z,34.56
2019-06-26T13:41:52.075Z,34.25
2019-06-26T13:44:20.570Z,34.37
2019-06-26T13:46:49.027Z,34.37
2019-06-26T13:49:17.461Z,33.79
2019-06-26T13:51:46.011Z,34.17
2019-06-26T13:54:14.585Z,34.35
2019-06-26T13:56:43.199Z,34.28
2019-06-26T13:59:11.721Z,34.56
2019-06-26T14:01:40.318Z,34.43
2019-06-26T14:04:08.890Z,34.53
2019-06-26T14:06:37.385Z,34.31
2019-06-26T14:09:07.596Z,34.43
2019-06-26T14:11:36.107Z,34.61
2019-06-26T14:14:04.660Z,34.72
2019-06-26T14:16:33.136Z,34.56
2019-06-26T14:19:01.557Z,34.38
2019-06-26T14:21:30.404Z,33.68
2019-06-26T14:23:59.251Z,34.03
2019-06-26T14:26:27.777Z,34.09
2019-06-26T14:28:56.301Z,34.15
2019-06-26T14:31:24.755Z,34.13
2019-06-26T14:33:53.217Z,33.69
2019-06-26T14:36:23.368Z,34.02
2019-06-26T14:38:51.994Z,34.03
2019-06-26T14:41:20.604Z,33.98
2019-06-26T14:43:49.161Z,34.20
2019-06-26T14:46:17.711Z,34.20
2019-06-26T14:48:46.110Z,34.28
2019-06-26T14:51:14.605Z,34.25
2019-06-26T14:53:43.046Z,34.33
2019-06-26T14:56:11.580Z,34.15
2019-06-26T14:58:40.155Z,34.26
2019-06-26T15:01:08.671Z,34.29
2019-06-26T15:03:37.172Z,34.14
2019-06-26T15:06:15.757Z,34.30
2019-06-26T15:08:35.936Z,34.02
2019-06-26T15:11:04.448Z,34.06
2019-06-26T15:13:32.910Z,33.92
2019-06-26T15:16:01.340Z,33.68
2019-06-26T15:18:29.803Z,33.80
2019-06-26T15:20:58.357Z,33.82
2019-06-26T15:23:26.820Z,34.07
2019-06-26T15:25:55.292Z,33.70
2019-06-26T15:28:23.781Z,33.84
2019-06-26T15:30:52.400Z,33.72
2019-06-26T15:33:20.832Z,33.89
2019-06-26T15:35:49.253Z,33.87
2019-06-26T15:38:17.729Z,33.87
2019-06-26T15:40:46.155Z,33.81
2019-06-26T15:43:14.733Z,33.91
2019-06-26T15:45:43.191Z,33.70
2019-06-26T15:48:11.724Z,33.60
2019-06-26T15:50:40.170Z,33.83
2019-06-26T15:53:08.695Z,33.87
2019-06-26T15:55:37.132Z,33.81
2019-06-26T15:58:05.590Z,33.64
2019-06-26T16:00:34.096Z,33.80
2019-06-26T16:03:02.653Z,33.78
2019-06-26T16:05:31.086Z,33.71
2019-06-26T16:07:59.547Z,33.76
2019-06-26T16:10:28.036Z,33.86
2019-06-26T16:12:56.515Z,33.81
2019-06-26T16:15:24.958Z,33.76
2019-06-26T16:17:55.062Z,33.70
2019-06-26T16:20:23.541Z,33.89
2019-06-26T16:22:51.975Z,33.67
2019-06-26T16:25:20.601Z,33.77
2019-06-26T16:28:04.324Z,33.78
2019-06-26T16:30:19.522Z,33.59
2019-06-26T16:32:48.022Z,33.67
2019-06-26T16:35:16.815Z,33.62
2019-06-26T16:37:45.386Z,33.58
2019-06-26T16:40:13.937Z,33.65
2019-06-26T16:42:42.403Z,33.61
2019-06-26T16:45:11.105Z,33.57
2019-06-26T16:47:39.543Z,33.39
2019-06-26T16:50:08.750Z,33.57
2019-06-26T16:52:48.393Z,33.60
2019-06-26T16:55:07.591Z,33.39
2019-06-26T16:57:36.160Z,33.36
2019-06-26T17:00:09.812Z,33.45
2019-06-26T17:02:37.907Z,33.30
2019-06-26T17:05:08.012Z,33.21
2019-06-26T17:07:36.520Z,33.14
2019-06-26T17:10:08.505Z,33.14
2019-06-26T17:12:37.027Z,33.13
2019-06-26T17:15:07.339Z,32.92
2019-06-26T17:17:35.829Z,32.64
2019-06-26T17:20:05.230Z,32.84
2019-06-26T17:22:33.660Z,32.70
2019-06-26T17:25:02.461Z,32.73
2019-06-26T17:27:31.130Z,32.83
2019-06-26T17:29:59.591Z,32.57
2019-06-26T17:32:28.020Z,32.53
2019-06-26T17:34:56.563Z,32.37
2019-06-26T17:37:25.010Z,32.57
2019-06-26T17:39:53.509Z,32.67
2019-06-26T17:42:22.136Z,32.45
2019-06-26T17:44:50.600Z,32.39
2019-06-26T17:47:19.108Z,32.27
2019-06-26T17:49:47.662Z,32.26
2019-06-26T17:52:16.148Z,32.14
2019-06-26T17:54:44.708Z,32.11
2019-06-26T17:57:13.129Z,32.09
2019-06-26T17:59:41.593Z,32.15
2019-06-26T18:02:10.045Z,31.95
2019-06-26T18:04:38.487Z,31.80
2019-06-26T18:07:06.995Z,31.67
2019-06-26T18:09:35.426Z,31.59
2019-06-26T18:12:03.960Z,31.51
2019-06-26T18:14:32.458Z,31.65
2019-06-26T18:17:01.215Z,31.59
2019-06-26T18:19:29.642Z,31.50
2019-06-26T18:21:58.179Z,31.46
2019-06-26T18:24:26.635Z,31.40
2019-06-26T18:26:55.154Z,31.26
2019-06-26T18:29:23.570Z,31.06
2019-06-26T18:31:52.194Z,30.91
2019-06-26T18:34:20.766Z,30.78
2019-06-26T18:36:49.210Z,30.84
2019-06-26T18:39:17.722Z,30.74
2019-06-26T18:41:46.177Z,30.78
2019-06-26T18:44:14.695Z,30.66
2019-06-26T18:46:43.314Z,30.68
2019-06-26T18:49:11.761Z,30.66
2019-06-26T18:51:40.356Z,30.78
2019-06-26T18:54:08.844Z,30.62
2019-06-26T18:56:37.348Z,30.62
2019-06-26T18:59:05.919Z,30.66
2019-06-26T19:01:34.491Z,30.69
2019-06-26T19:04:03.055Z,30.40
2019-06-26T19:06:31.697Z,30.53
2019-06-26T19:09:00.281Z,30.52
2019-06-26T19:11:28.799Z,30.49
2019-06-26T19:13:57.281Z,30.48
2019-06-26T19:16:25.718Z,30.11
2019-06-26T19:18:54.149Z,30.01
2019-06-26T19:21:22.690Z,29.93
2019-06-26T19:23:51.189Z,29.84
2019-06-26T19:26:19.704Z,29.66
2019-06-26T19:28:48.165Z,29.44
2019-06-26T19:31:16.619Z,29.41
2019-06-26T19:33:45.788Z,29.25
2019-06-26T19:36:14.359Z,29.22
2019-06-26T19:38:42.802Z,29.05
2019-06-26T19:41:11.305Z,28.84
2019-06-26T19:43:39.876Z,28.88
2019-06-26T19:46:08.421Z,28.91
2019-06-26T19:48:36.933Z,28.98
2019-06-26T19:51:05.481Z,29.02
2019-06-26T19:53:33.943Z,29.10
2019-06-26T19:56:02.400Z,28.91
2019-06-26T19:58:30.876Z,28.91
2019-06-26T20:00:59.461Z,28.28
2019-06-26T20:03:27.922Z,28.28
2019-06-26T20:05:56.369Z,28.19
2019-06-26T20:08:24.885Z,28.13
2019-06-26T20:10:53.325Z,27.84
2019-06-26T20:13:21.804Z,27.84
2019-06-26T20:15:50.380Z,27.60
2019-06-26T20:18:18.891Z,27.96
2019-06-26T20:20:47.363Z,27.96
2019-06-26T20:23:15.949Z,28.34
2019-06-26T20:25:44.515Z,28.18
2019-06-26T20:28:13.055Z,27.95
2019-06-26T20:30:41.635Z,27.97
2019-06-26T20:33:10.066Z,27.83
2019-06-26T20:35:39.011Z,27.57
2019-06-26T20:38:07.687Z,27.58
2019-06-26T20:40:36.218Z,27.72
2019-06-26T20:43:04.797Z,27.64
2019-06-26T20:45:33.304Z,27.58
2019-06-26T20:48:01.766Z,27.51
2019-06-26T20:50:30.272Z,27.64
2019-06-26T20:52:58.739Z,27.55
2019-06-26T20:55:27.297Z,27.32
2019-06-26T20:57:55.802Z,27.37
2019-06-26T21:00:24.290Z,27.27
2019-06-26T21:02:54.337Z,27.36
2019-06-26T21:05:23.169Z,27.24
2019-06-26T21:07:51.778Z,27.24
2019-06-26T21:10:20.233Z,27.18
2019-06-26T21:12:48.745Z,27.14
2019-06-26T21:15:17.424Z,27.14
2019-06-26T21:17:45.933Z,27.03
2019-06-26T21:20:14.437Z,26.99
2019-06-26T21:22:42.942Z,27.05
2019-06-26T21:25:18.841Z,26.96
2019-06-26T21:27:41.650Z,26.89
2019-06-26T21:30:10.551Z,26.64
2019-06-26T21:32:39.065Z,26.36
2019-06-26T21:35:07.711Z,26.59
2019-06-26T21:37:36.246Z,26.12
2019-06-26T21:40:04.799Z,25.78
2019-06-26T21:42:33.347Z,26.02
2019-06-26T21:45:02.092Z,25.68
2019-06-26T21:47:30.562Z,25.91
2019-06-26T21:49:59.037Z,26.05
2019-06-26T21:52:27.491Z,25.77
2019-06-26T21:54:56.097Z,25.78
2019-06-26T21:57:24.572Z,25.73
2019-06-26T21:59:53.059Z,26.05
2019-06-26T22:02:21.501Z,25.74
2019-06-26T22:04:50.010Z,25.52
2019-06-26T22:07:18.699Z,25.16
2019-06-26T22:09:47.219Z,25.05
2019-06-26T22:12:15.734Z,25.22
2019-06-26T22:14:44.296Z,25.12
2019-06-26T22:17:12.758Z,24.70
2019-06-26T22:19:41.214Z,24.80
2019-06-26T22:22:09.644Z,25.07
2019-06-26T22:24:38.228Z,25.13
2019-06-26T22:27:06.780Z,24.93
2019-06-26T22:29:35.213Z,24.85
2019-06-26T22:32:03.814Z,25.03
2019-06-26T22:34:32.307Z,25.15
2019-06-26T22:37:01.068Z,25.21
2019-06-26T22:39:29.501Z,25.10
2019-06-26T22:41:58.030Z,24.74
2019-06-26T22:44:26.478Z,24.71
2019-06-26T22:46:54.901Z,24.67
2019-06-26T22:49:23.515Z,24.66
2019-06-26T22:51:52.050Z,24.56
2019-06-26T22:54:20.552Z,24.38
2019-06-26T22:56:49.093Z,24.43
2019-06-26T22:59:17.556Z,24.40
2019-06-26T23:01:46.088Z,24.60
2019-06-26T23:04:14.594Z,24.51
2019-06-26T23:06:43.182Z,24.26
2019-06-26T23:09:11.672Z,24.24
2019-06-26T23:11:40.080Z,24.23
2019-06-26T23:14:08.592Z,24.29
2019-06-26T23:16:37.061Z,24.16
2019-06-26T23:19:05.566Z,24.35
2019-06-26T23:21:34.110Z,24.28
2019-06-26T23:24:02.533Z,24.29
2019-06-26T23:26:31.152Z,24.23
2019-06-26T23:28:59.585Z,24.30
2019-06-26T23:31:28.017Z,24.30
2019-06-26T23:33:56.480Z,24.21
2019-06-26T23:36:25.009Z,24.08
2019-06-26T23:38:53.482Z,23.79
2019-06-26T23:41:21.956Z,23.88
2019-06-26T23:43:50.512Z,23.79
2019-06-26T23:46:18.948Z,23.79
2019-06-26T23:48:47.403Z,23.85
2019-06-26T23:51:15.850Z,23.86
2019-06-26T23:53:44.314Z,23.93
2019-06-26T23:56:12.761Z,24.03
2019-06-26T23:58:41.267Z,23.99
